Time;durP1;ratioP1;P1;durP2;ratioP2;P2;SDS_P1;SDS_P2;PMS_P1;PMS_P2;Temp;Humidity;BMP_temperature;BMP_pressure;BME280_temperature;BME280_humidity;BME280_pressure;Samples;Min_cycle;Max_cycle;Signal;HPM_P1;HPM_P2
2023/05/24 00:01:51;;;;;;;23.20;6.43;;;7.40;99.90;;;;;;5031418;28;20110;-75
2023/05/24 00:04:18;;;;;;;20.83;5.30;;;7.40;99.90;;;;;;5031451;28;20496;-74
2023/05/24 00:06:44;;;;;;;26.75;5.97;;;7.40;99.90;;;;;;5031228;28;20045;-72
2023/05/24 00:09:11;;;;;;;23.70;5.13;;;7.40;99.90;;;;;;5047377;28;20041;-72
2023/05/24 00:11:37;;;;;;;25.95;5.60;;;7.40;99.90;;;;;;5030623;28;20048;-73
2023/05/24 00:14:03;;;;;;;24.60;5.80;;;7.40;99.90;;;;;;5030674;28;20037;-73
2023/05/24 00:16:29;;;;;;;22.60;5.30;;;7.40;99.90;;;;;;5030869;28;20436;-73
2023/05/24 00:18:57;;;;;;;22.08;5.70;;;7.40;99.90;;;;;;5030696;28;20029;-73
2023/05/24 00:21:22;;;;;;;20.95;5.28;;;7.40;99.90;;;;;;5030539;28;20076;-73
2023/05/24 00:23:50;;;;;;;18.00;4.93;;;7.40;99.90;;;;;;5028080;28;20555;-73
2023/05/24 00:26:16;;;;;;;18.55;5.68;;;7.40;99.90;;;;;;5014698;28;20083;-73
2023/05/24 00:28:42;;;;;;;18.75;5.68;;;7.40;99.90;;;;;;5031721;28;20574;-73
2023/05/24 00:31:08;;;;;;;23.48;5.90;;;7.40;99.90;;;;;;5030871;28;20033;-73
2023/05/24 00:33:33;;;;;;;26.77;5.55;;;7.40;99.90;;;;;;5029434;28;20044;-73
2023/05/24 00:35:59;;;;;;;19.75;5.38;;;7.40;99.90;;;;;;5031203;28;20037;-73
2023/05/24 00:38:25;;;;;;;22.05;5.22;;;7.40;99.90;;;;;;5064336;28;20052;-73
2023/05/24 00:40:52;;;;;;;21.38;5.13;;;7.50;99.90;;;;;;5031228;28;20037;-73
2023/05/24 00:43:18;;;;;;;22.95;5.70;;;7.50;99.90;;;;;;5029230;28;20044;-73
2023/05/24 00:45:44;;;;;;;23.58;5.93;;;7.50;99.90;;;;;;5030893;28;20044;-73
2023/05/24 00:48:11;;;;;;;30.67;5.60;;;7.60;99.90;;;;;;5028969;28;20392;-73
2023/05/24 00:50:40;;;;;;;19.58;6.35;;;7.60;99.90;;;;;;5029789;28;20516;-73
2023/05/24 00:53:08;;;;;;;20.55;5.68;;;7.70;99.90;;;;;;5059344;28;20069;-73
2023/05/24 00:55:35;;;;;;;24.50;5.72;;;7.70;99.90;;;;;;5030972;28;20044;-73
2023/05/24 00:58:01;;;;;;;27.05;6.40;;;7.70;99.90;;;;;;5055012;28;20405;-72
2023/05/24 01:00:28;;;;;;;27.60;6.40;;;7.70;99.90;;;;;;5064358;28;20076;-73
2023/05/24 01:02:54;;;;;;;23.60;5.93;;;7.70;99.90;;;;;;5029192;28;20079;-73
2023/05/24 01:05:22;;;;;;;22.48;6.13;;;7.70;99.90;;;;;;5031219;28;20040;-73
2023/05/24 01:08:23;;;;;;;26.88;5.90;;;7.70;99.90;;;;;;5030428;28;20080;-73
2023/05/24 01:11:03;;;;;;;30.25;6.28;;;7.70;99.90;;;;;;5029144;28;20395;-73
2023/05/24 01:13:56;;;;;;;28.15;6.43;;;7.60;99.90;;;;;;5028374;28;20149;-73
2023/05/24 01:16:26;;;;;;;22.73;5.82;;;7.60;99.90;;;;;;5033347;28;20033;-73
2023/05/24 01:19:01;;;;;;;21.30;5.55;;;7.50;99.90;;;;;;5032814;28;20123;-73
2023/05/24 01:21:37;;;;;;;33.67;6.45;;;7.50;99.90;;;;;;5030567;28;20373;-73
2023/05/24 01:24:28;;;;;;;26.45;6.18;;;7.50;99.90;;;;;;5034669;28;20110;-73
2023/05/24 01:27:09;;;;;;;24.67;5.63;;;7.40;99.90;;;;;;5031975;28;20045;-72
2023/05/24 01:29:36;;;;;;;27.08;6.35;;;7.40;99.90;;;;;;5034000;28;20040;-73
2023/05/24 01:32:02;;;;;;;25.27;6.47;;;7.40;99.90;;;;;;5033096;28;20148;-73
2023/05/24 01:34:28;;;;;;;28.23;6.18;;;7.30;99.90;;;;;;5034602;28;20128;-73
2023/05/24 01:36:54;;;;;;;26.27;6.65;;;7.30;99.90;;;;;;5032081;28;20075;-73
2023/05/24 01:39:21;;;;;;;23.73;6.55;;;7.30;99.90;;;;;;5034005;28;20049;-73
2023/05/24 01:41:58;;;;;;;23.00;6.03;;;7.30;99.90;;;;;;5030865;28;20049;-73
2023/05/24 01:44:56;;;;;;;28.55;6.63;;;7.30;99.90;;;;;;5033414;28;20052;-73
2023/05/24 01:47:35;;;;;;;31.35;6.07;;;7.30;99.90;;;;;;5062425;28;20049;-73
2023/05/24 01:50:16;;;;;;;25.92;6.20;;;7.20;99.90;;;;;;5066801;28;20040;-73
2023/05/24 01:52:44;;;;;;;24.30;6.43;;;7.20;99.90;;;;;;5063224;28;20130;-73
2023/05/24 01:55:13;;;;;;;22.23;6.57;;;7.20;99.90;;;;;;5033348;28;20044;-73
2023/05/24 01:57:41;;;;;;;25.90;6.57;;;7.20;99.90;;;;;;5064511;28;20119;-73
2023/05/24 02:00:09;;;;;;;22.13;6.50;;;7.10;99.90;;;;;;5033409;28;20087;-73
2023/05/24 02:02:35;;;;;;;25.88;7.32;;;7.10;99.90;;;;;;5065445;28;20087;-73
2023/05/24 02:05:01;;;;;;;20.60;6.18;;;7.00;99.90;;;;;;5018017;28;20099;-73
2023/05/24 02:07:26;;;;;;;28.50;6.18;;;7.10;99.90;;;;;;5032835;28;20037;-73
2023/05/24 02:09:52;;;;;;;19.40;5.97;;;7.00;99.90;;;;;;5032768;28;20115;-72
2023/05/24 02:12:18;;;;;;;26.58;6.45;;;7.00;99.90;;;;;;5035378;28;20386;-72
2023/05/24 02:14:43;;;;;;;28.92;6.18;;;7.00;99.90;;;;;;5048029;28;20123;-72
2023/05/24 02:17:09;;;;;;;24.77;6.20;;;7.00;99.90;;;;;;5032519;28;20123;-73
2023/05/24 02:19:36;;;;;;;28.02;7.13;;;6.90;99.90;;;;;;5032327;28;20037;-73
2023/05/24 02:22:02;;;;;;;21.92;5.60;;;6.90;99.90;;;;;;5031388;28;20605;-72
2023/05/24 02:24:28;;;;;;;29.13;6.45;;;7.00;99.90;;;;;;5033516;28;20574;-73
2023/05/24 02:26:54;;;;;;;23.55;5.53;;;7.00;99.90;;;;;;5046691;28;20106;-72
2023/05/24 02:29:21;;;;;;;24.00;5.97;;;7.00;99.90;;;;;;5033099;28;20040;-72
2023/05/24 02:31:50;;;;;;;25.70;6.63;;;7.00;99.90;;;;;;5063471;28;20041;-72
2023/05/24 02:34:16;;;;;;;24.65;5.78;;;6.90;99.90;;;;;;5033065;28;20118;-72
2023/05/24 02:36:42;;;;;;;20.33;5.65;;;7.00;99.90;;;;;;5028947;28;20041;-72
2023/05/24 02:39:08;;;;;;;28.45;6.70;;;7.00;99.90;;;;;;5029971;28;20152;-72
2023/05/24 02:41:34;;;;;;;21.58;5.75;;;7.00;99.90;;;;;;5034378;28;20029;-72
2023/05/24 02:43:59;;;;;;;28.67;6.43;;;7.00;99.90;;;;;;5032874;28;20041;-72
2023/05/24 02:46:25;;;;;;;25.15;6.15;;;6.90;99.90;;;;;;5032574;28;20115;-72
2023/05/24 02:48:51;;;;;;;28.50;6.78;;;6.90;99.90;;;;;;5031121;28;20445;-72
2023/05/24 02:51:18;;;;;;;26.73;6.57;;;7.00;99.90;;;;;;5033084;28;20041;-72
2023/05/24 02:53:44;;;;;;;29.85;6.53;;;7.00;99.90;;;;;;5033693;28;20481;-72
2023/05/24 02:56:10;;;;;;;21.50;6.03;;;7.00;99.90;;;;;;5031778;28;20095;-72
2023/05/24 02:58:39;;;;;;;31.83;6.50;;;6.90;99.90;;;;;;5031691;28;20488;-72
2023/05/24 03:01:06;;;;;;;21.63;5.50;;;7.00;99.90;;;;;;5049081;28;20435;-72
2023/05/24 03:03:32;;;;;;;26.50;5.95;;;6.90;99.90;;;;;;5061842;28;20187;-72
2023/05/24 03:05:57;;;;;;;26.80;6.18;;;6.90;99.90;;;;;;5035705;28;20076;-72
2023/05/24 03:08:23;;;;;;;22.85;6.07;;;7.00;99.90;;;;;;5031377;28;20036;-72
2023/05/24 03:10:49;;;;;;;27.20;5.57;;;7.00;99.90;;;;;;5032854;28;20040;-72
2023/05/24 03:13:14;;;;;;;23.45;5.43;;;7.00;99.90;;;;;;5031905;28;20432;-72
2023/05/24 03:15:41;;;;;;;35.47;6.88;;;7.00;99.90;;;;;;5028759;28;20110;-73
2023/05/24 03:18:07;;;;;;;28.73;6.82;;;7.10;99.90;;;;;;5030287;28;20044;-72
2023/05/24 03:20:33;;;;;;;27.10;6.35;;;7.10;99.90;;;;;;5046983;28;20041;-72
2023/05/24 03:22:58;;;;;;;27.33;6.40;;;7.10;99.90;;;;;;5015681;28;20041;-72
2023/05/24 03:25:26;;;;;;;25.83;6.18;;;7.10;99.90;;;;;;5032141;28;20094;-72
2023/05/24 03:27:51;;;;;;;24.65;5.65;;;7.10;99.90;;;;;;5047399;28;20574;-72
2023/05/24 03:30:17;;;;;;;26.85;5.97;;;7.10;99.90;;;;;;5062975;28;20083;-72
2023/05/24 03:32:43;;;;;;;28.35;6.10;;;7.10;99.90;;;;;;5030095;28;20029;-72
2023/05/24 03:35:10;;;;;;;27.45;6.05;;;7.10;99.90;;;;;;5028110;28;20393;-72
2023/05/24 03:37:37;;;;;;;29.42;6.47;;;7.10;99.90;;;;;;5029018;28;20520;-72
2023/05/24 03:40:03;;;;;;;21.15;5.45;;;7.10;99.90;;;;;;5030609;28;20512;-72
2023/05/24 03:42:29;;;;;;;25.23;5.57;;;7.10;99.90;;;;;;5046623;28;20496;-72
2023/05/24 03:44:55;;;;;;;16.95;4.85;;;7.20;99.90;;;;;;5030643;28;20076;-72
2023/05/24 03:47:20;;;;;;;22.50;5.65;;;7.10;99.90;;;;;;5030583;28;20409;-72
2023/05/24 03:49:46;;;;;;;28.23;6.78;;;7.20;99.90;;;;;;5033006;28;20092;-73
2023/05/24 03:52:12;;;;;;;24.00;6.28;;;7.20;99.90;;;;;;5029880;28;20037;-73
2023/05/24 03:54:38;;;;;;;18.90;5.18;;;7.10;99.90;;;;;;5031376;28;20048;-72
2023/05/24 03:57:03;;;;;;;25.10;5.90;;;7.10;99.90;;;;;;5029386;28;20040;-73
2023/05/24 03:59:29;;;;;;;22.10;5.57;;;7.20;99.90;;;;;;5063826;28;20399;-72
2023/05/24 04:01:55;;;;;;;21.30;5.20;;;7.20;99.90;;;;;;5012084;28;20060;-72
2023/05/24 04:04:21;;;;;;;21.38;5.38;;;7.20;99.90;;;;;;5033534;28;20040;-72
2023/05/24 04:06:48;;;;;;;27.73;6.13;;;7.20;99.90;;;;;;5031698;28;20048;-72
2023/05/24 04:09:14;;;;;;;27.08;5.75;;;7.20;99.90;;;;;;5031648;28;20517;-72
2023/05/24 04:11:40;;;;;;;23.17;4.93;;;7.20;99.90;;;;;;5030439;28;20131;-73
2023/05/24 04:14:06;;;;;;;27.60;5.68;;;7.20;99.90;;;;;;5030232;28;20056;-72
2023/05/24 04:16:34;;;;;;;23.55;5.88;;;7.30;99.90;;;;;;5030239;28;20047;-72
2023/05/24 04:19:02;;;;;;;20.45;5.70;;;7.30;99.90;;;;;;5030969;28;20132;-72
2023/05/24 04:21:29;;;;;;;26.55;5.55;;;7.40;99.90;;;;;;5028289;28;20041;-72
2023/05/24 04:23:55;;;;;;;20.38;5.28;;;7.50;99.90;;;;;;5064876;28;20612;-73
2023/05/24 04:26:21;;;;;;;22.20;5.90;;;7.50;99.90;;;;;;5031270;28;20059;-73
2023/05/24 04:28:47;;;;;;;24.73;5.72;;;7.60;99.90;;;;;;5029416;28;20457;-72
2023/05/24 04:31:14;;;;;;;22.77;5.45;;;7.70;99.90;;;;;;5030531;28;21165;-73
2023/05/24 04:33:40;;;;;;;20.92;5.28;;;7.70;99.90;;;;;;5046767;28;20040;-73
2023/05/24 04:36:07;;;;;;;24.90;5.43;;;7.80;99.90;;;;;;5031359;28;20040;-73
2023/05/24 04:38:34;;;;;;;24.60;5.68;;;7.90;99.90;;;;;;5031136;28;20044;-73
2023/05/24 04:41:01;;;;;;;19.13;5.13;;;8.00;99.90;;;;;;5031508;28;20123;-72
2023/05/24 04:43:27;;;;;;;25.20;5.65;;;8.10;99.90;;;;;;5031975;28;20395;-73
2023/05/24 04:45:53;;;;;;;20.48;5.30;;;8.10;99.90;;;;;;5031149;28;20036;-73
2023/05/24 04:48:23;;;;;;;24.30;5.32;;;8.20;99.90;;;;;;5029646;28;20103;-73
2023/05/24 04:50:53;;;;;;;21.70;5.40;;;8.20;99.90;;;;;;5033091;28;20040;-73
2023/05/24 04:53:20;;;;;;;16.90;5.28;;;8.30;99.90;;;;;;5033371;28;20056;-72
2023/05/24 04:55:46;;;;;;;20.05;5.45;;;8.40;99.90;;;;;;5035373;28;20045;-73
2023/05/24 04:58:13;;;;;;;21.83;5.25;;;8.40;99.90;;;;;;5032064;28;20041;-73
2023/05/24 05:00:39;;;;;;;22.73;5.20;;;8.50;99.90;;;;;;5035220;28;20107;-73
2023/05/24 05:03:04;;;;;;;20.75;6.22;;;8.60;99.90;;;;;;5032775;28;20084;-73
2023/05/24 05:05:30;;;;;;;23.77;5.32;;;8.70;99.90;;;;;;5036803;28;20106;-73
2023/05/24 05:07:56;;;;;;;22.25;4.78;;;8.70;99.90;;;;;;5052533;28;20040;-73
2023/05/24 05:10:22;;;;;;;20.20;6.47;;;8.80;99.90;;;;;;5034879;28;20037;-73
2023/05/24 05:12:48;;;;;;;20.77;5.13;;;8.80;99.90;;;;;;5047527;28;20048;-73
2023/05/24 05:15:14;;;;;;;21.63;5.05;;;8.90;99.90;;;;;;5033996;28;20037;-73
2023/05/24 05:17:39;;;;;;;20.65;5.03;;;8.90;99.90;;;;;;5033316;28;20424;-74
2023/05/24 05:20:06;;;;;;;25.33;4.95;;;9.00;99.90;;;;;;5030934;28;20041;-73
2023/05/24 05:22:32;;;;;;;21.52;5.35;;;9.00;99.90;;;;;;5033874;28;20114;-73
2023/05/24 05:24:59;;;;;;;20.70;5.25;;;9.10;99.90;;;;;;5034435;28;20068;-73
2023/05/24 05:27:24;;;;;;;19.10;4.82;;;9.20;99.90;;;;;;5032436;28;20033;-73
2023/05/24 05:29:50;;;;;;;24.02;5.28;;;9.20;99.90;;;;;;5034391;28;20059;-73
2023/05/24 05:32:19;;;;;;;22.65;5.47;;;9.30;99.90;;;;;;5030927;28;20404;-75
2023/05/24 05:34:45;;;;;;;18.65;5.05;;;9.40;99.90;;;;;;5033488;28;20041;-73
2023/05/24 05:37:11;;;;;;;24.10;5.90;;;9.50;99.90;;;;;;5066784;28;20049;-73
2023/05/24 05:39:36;;;;;;;26.20;4.85;;;9.60;99.90;;;;;;5034331;28;20052;-73
2023/05/24 05:42:02;;;;;;;23.48;5.70;;;9.70;99.90;;;;;;5032768;28;20049;-73
2023/05/24 05:44:28;;;;;;;18.48;5.07;;;9.80;99.90;;;;;;5032787;28;20041;-73
2023/05/24 05:46:53;;;;;;;22.45;4.70;;;9.90;99.90;;;;;;5028961;28;20379;-73
2023/05/24 05:49:19;;;;;;;25.42;5.65;;;10.10;99.90;;;;;;5033340;28;20217;-73
2023/05/24 05:51:45;;;;;;;22.23;4.43;;;10.20;99.90;;;;;;5015849;28;20057;-73
2023/05/24 05:54:17;;;;;;;23.70;5.57;;;10.50;99.90;;;;;;5033364;28;20044;-74
2023/05/24 05:56:45;;;;;;;25.33;5.72;;;10.70;99.90;;;;;;5013382;28;20049;-74
2023/05/24 05:59:11;;;;;;;18.98;4.80;;;10.80;99.90;;;;;;5034967;28;20399;-73
2023/05/24 06:01:38;;;;;;;24.83;6.20;;;10.80;99.90;;;;;;5033095;28;20480;-73
2023/05/24 06:04:03;;;;;;;23.30;6.20;;;10.90;99.90;;;;;;5016583;28;20382;-74
2023/05/24 06:06:30;;;;;;;20.67;4.57;;;10.90;99.90;;;;;;5033199;28;20056;-74
2023/05/24 06:08:55;;;;;;;21.20;4.13;;;10.90;99.90;;;;;;5018154;28;20500;-73
2023/05/24 06:11:22;;;;;;;23.90;4.90;;;10.80;99.90;;;;;;5033608;28;20130;-73
2023/05/24 06:13:48;;;;;;;20.27;4.32;;;10.80;99.90;;;;;;5063005;28;20045;-73
2023/05/24 06:16:14;;;;;;;21.08;4.70;;;10.80;99.90;;;;;;5031983;28;20129;-72
2023/05/24 06:18:41;;;;;;;22.63;5.32;;;10.80;99.90;;;;;;5031932;28;20416;-73
2023/05/24 06:21:09;;;;;;;20.17;4.82;;;10.90;99.90;;;;;;5033142;28;20510;-73
2023/05/24 06:23:37;;;;;;;23.20;4.90;;;10.90;99.90;;;;;;5031426;28;20036;-73
2023/05/24 06:26:03;;;;;;;18.63;4.45;;;10.90;99.90;;;;;;5049555;28;20040;-73
2023/05/24 06:28:29;;;;;;;20.27;4.50;;;11.00;99.90;;;;;;5029145;28;20485;-73
2023/05/24 06:30:55;;;;;;;21.35;4.50;;;11.10;99.90;;;;;;5032954;28;20063;-73
2023/05/24 06:33:21;;;;;;;24.02;5.28;;;11.20;99.90;;;;;;5031058;28;20386;-73
2023/05/24 06:35:47;;;;;;;23.38;4.75;;;11.30;99.90;;;;;;5033348;28;20148;-73
2023/05/24 06:38:13;;;;;;;23.23;4.82;;;11.40;99.90;;;;;;5031622;28;20124;-73
2023/05/24 06:40:39;;;;;;;20.50;4.30;;;11.50;99.90;;;;;;5033318;28;20124;-73
2023/05/24 06:43:05;;;;;;;17.25;4.38;;;11.50;99.90;;;;;;5032188;28;20048;-72
2023/05/24 06:45:30;;;;;;;22.15;4.93;;;11.50;99.90;;;;;;5033524;28;20045;-73
2023/05/24 06:47:56;;;;;;;17.48;4.20;;;11.60;99.90;;;;;;5031791;28;20071;-73
2023/05/24 06:50:22;;;;;;;18.40;5.25;;;11.60;99.90;;;;;;5065404;28;20041;-72
2023/05/24 06:52:48;;;;;;;26.42;5.85;;;11.80;99.90;;;;;;5032110;28;20661;-72
2023/05/24 06:55:14;;;;;;;17.33;4.90;;;11.90;99.90;;;;;;5015995;28;20124;-73
2023/05/24 06:57:40;;;;;;;22.27;5.50;;;12.00;99.90;;;;;;5031321;28;20060;-72
2023/05/24 07:00:10;;;;;;;17.73;4.32;;;12.20;99.90;;;;;;5032567;28;20493;-72
2023/05/24 07:02:37;;;;;;;17.17;4.75;;;12.30;99.90;;;;;;5029794;28;20425;-72
2023/05/24 07:05:04;;;;;;;18.00;4.88;;;12.30;99.90;;;;;;5036343;28;20488;-72
2023/05/24 07:07:30;;;;;;;19.40;4.45;;;12.20;99.90;;;;;;5028870;28;20037;-72
2023/05/24 07:09:55;;;;;;;20.65;4.90;;;12.20;99.90;;;;;;5032455;28;20059;-72
2023/05/24 07:12:22;;;;;;;15.57;4.38;;;12.20;99.90;;;;;;5030973;28;20485;-71
2023/05/24 07:14:48;;;;;;;17.38;4.80;;;12.30;99.90;;;;;;5031176;28;20068;-72
2023/05/24 07:17:13;;;;;;;18.65;4.40;;;12.50;99.90;;;;;;5029199;28;20552;-72
2023/05/24 07:19:40;;;;;;;15.95;4.07;;;12.80;99.90;;;;;;5032029;28;20041;-72
2023/05/24 07:22:06;;;;;;;14.95;3.63;;;13.00;99.90;;;;;;5031573;28;20048;-72
2023/05/24 07:24:32;;;;;;;15.15;3.70;;;13.30;99.90;;;;;;5032366;28;20041;-72
2023/05/24 07:26:58;;;;;;;20.23;4.15;;;13.40;99.90;;;;;;5048495;28;20404;-72
2023/05/24 07:29:24;;;;;;;16.42;3.58;;;13.60;99.90;;;;;;5031857;28;20049;-72
2023/05/24 07:31:50;;;;;;;16.70;3.92;;;13.80;99.90;;;;;;5029980;28;20339;-72
2023/05/24 07:34:20;;;;;;;14.52;3.60;;;14.00;99.90;;;;;;5031095;28;20166;-72
2023/05/24 07:36:47;;;;;;;14.18;3.67;;;14.00;99.90;;;;;;5046336;28;20048;-72
2023/05/24 07:39:14;;;;;;;16.98;3.35;;;14.00;99.90;;;;;;5051010;28;20041;-71
2023/05/24 07:41:40;;;;;;;16.42;3.38;;;14.10;99.90;;;;;;5032919;28;20051;-72
2023/05/24 07:44:06;;;;;;;12.30;3.17;;;14.20;99.90;;;;;;5034983;28;20080;-71
2023/05/24 07:46:32;;;;;;;14.60;2.85;;;14.10;99.90;;;;;;5050182;28;20044;-71
2023/05/24 07:48:58;;;;;;;11.73;2.65;;;14.00;99.90;;;;;;5031891;28;20519;-72
2023/05/24 07:51:24;;;;;;;12.68;2.92;;;14.10;99.90;;;;;;5032690;28;20053;-72
2023/05/24 07:53:50;;;;;;;12.73;2.60;;;14.30;99.90;;;;;;5030661;28;20132;-71
2023/05/24 07:56:16;;;;;;;12.38;3.17;;;14.40;99.90;;;;;;5033230;28;20120;-72
2023/05/24 07:58:45;;;;;;;10.43;3.08;;;14.40;99.90;;;;;;5032535;28;20115;-72
2023/05/24 08:01:12;;;;;;;7.53;2.50;;;14.60;99.90;;;;;;5033136;28;20041;-72
2023/05/24 08:03:38;;;;;;;10.82;3.40;;;14.70;99.90;;;;;;5031122;28;20040;-72
2023/05/24 08:06:04;;;;;;;11.65;2.90;;;14.70;99.90;;;;;;5035430;28;20072;-72
2023/05/24 08:08:30;;;;;;;13.63;2.85;;;14.80;99.90;;;;;;5063273;28;20067;-72
2023/05/24 08:10:56;;;;;;;12.00;2.40;;;14.90;99.90;;;;;;5032968;28;20075;-72
2023/05/24 08:13:22;;;;;;;10.23;2.60;;;14.90;99.90;;;;;;5030926;28;20041;-72
2023/05/24 08:15:47;;;;;;;11.77;2.88;;;14.90;99.90;;;;;;5031182;28;20029;-72
2023/05/24 08:18:13;;;;;;;8.80;2.08;;;15.10;99.90;;;;;;5064363;28;20459;-73
2023/05/24 08:20:39;;;;;;;7.88;2.45;;;15.30;99.90;;;;;;5023445;28;20115;-73
2023/05/24 08:23:05;;;;;;;8.43;2.53;;;15.30;99.90;;;;;;5028735;28;20045;-72
2023/05/24 08:25:31;;;;;;;10.77;2.58;;;15.20;99.90;;;;;;5059468;28;20519;-73
2023/05/24 08:27:57;;;;;;;10.68;2.75;;;15.10;99.90;;;;;;5031896;28;20071;-73
2023/05/24 08:30:23;;;;;;;10.00;2.67;;;15.10;99.90;;;;;;5033051;28;20119;-73
2023/05/24 08:32:51;;;;;;;9.63;2.50;;;15.10;99.90;;;;;;5031021;28;20488;-73
2023/05/24 08:35:16;;;;;;;10.20;2.67;;;15.00;99.90;;;;;;5032270;28;20507;-73
2023/05/24 08:37:42;;;;;;;13.40;2.58;;;14.80;99.90;;;;;;5032046;28;20123;-73
2023/05/24 08:40:08;;;;;;;10.40;2.50;;;14.70;99.90;;;;;;5032597;28;20040;-73
2023/05/24 08:42:38;;;;;;;10.32;2.53;;;15.20;99.90;;;;;;5030559;28;20057;-73
2023/05/24 08:45:09;;;;;;;10.93;2.92;;;15.70;99.90;;;;;;5029406;28;20049;-73
2023/05/24 08:47:37;;;;;;;12.80;3.10;;;15.80;99.90;;;;;;5027487;28;20056;-73
2023/05/24 08:50:03;;;;;;;14.48;3.10;;;15.70;99.90;;;;;;5015671;28;20045;-72
2023/05/24 08:52:31;;;;;;;9.20;2.75;;;15.60;99.90;;;;;;5031028;28;20465;-72
2023/05/24 08:55:00;;;;;;;11.65;2.85;;;15.50;99.90;;;;;;5026402;28;20033;-73
2023/05/24 08:57:26;;;;;;;11.85;2.63;;;15.40;99.90;;;;;;5063380;28;20045;-73
2023/05/24 08:59:56;;;;;;;7.93;2.63;;;15.40;99.90;;;;;;5064490;28;20511;-73
2023/05/24 09:02:22;;;;;;;8.00;2.40;;;15.40;99.90;;;;;;5030694;28;20051;-73
2023/05/24 09:04:51;;;;;;;11.70;3.03;;;15.30;99.90;;;;;;5031321;28;20159;-73
2023/05/24 09:07:18;;;;;;;11.32;2.63;;;15.10;99.90;;;;;;5028516;28;20037;-73
2023/05/24 09:09:55;;;;;;;9.85;2.50;;;14.90;99.90;;;;;;5030725;28;20037;-73
2023/05/24 09:12:23;;;;;;;10.52;3.15;;;14.90;99.90;;;;;;5029369;28;20508;-73
2023/05/24 09:14:49;;;;;;;11.27;3.17;;;15.20;99.90;;;;;;5028307;28;20399;-73
2023/05/24 09:17:15;;;;;;;10.02;2.53;;;15.80;99.90;;;;;;5028805;28;20059;-74
2023/05/24 09:19:47;;;;;;;9.52;2.78;;;16.20;99.90;;;;;;5030496;28;20052;-73
2023/05/24 09:22:14;;;;;;;9.20;2.92;;;16.20;99.90;;;;;;5030486;28;20098;-73
2023/05/24 09:24:40;;;;;;;12.02;3.50;;;16.10;99.90;;;;;;5063807;28;20041;-73
2023/05/24 09:27:06;;;;;;;15.13;2.65;;;16.40;99.90;;;;;;5015347;28;20175;-74
2023/05/24 09:29:36;;;;;;;10.13;2.47;;;16.80;99.90;;;;;;5044944;28;20116;-73
2023/05/24 09:32:03;;;;;;;8.90;2.75;;;16.60;99.90;;;;;;5028858;28;20060;-73
2023/05/24 09:34:37;;;;;;;9.50;2.85;;;16.40;99.90;;;;;;5047069;28;20083;-72
2023/05/24 09:37:04;;;;;;;;;;;16.40;99.90;;;;;;5032872;28;20194;-73
2023/05/24 09:39:30;;;;;;;7.18;2.15;;;16.00;99.90;;;;;;5066280;28;20331;-73
2023/05/24 09:41:56;;;;;;;8.98;2.50;;;16.20;99.90;;;;;;5031794;28;20505;-73
2023/05/24 09:44:28;;;;;;;7.93;2.60;;;16.40;99.90;;;;;;5032318;28;20055;-73
2023/05/24 09:47:02;;;;;;;7.13;2.10;;;16.70;99.90;;;;;;5026589;28;20073;-72
2023/05/24 09:49:28;;;;;;;7.65;2.22;;;16.70;99.50;;;;;;5067059;28;20044;-74
2023/05/24 09:51:54;;;;;;;6.95;2.67;;;16.80;99.70;;;;;;5031843;28;20046;-74
2023/05/24 09:54:19;;;;;;;5.63;2.42;;;17.20;99.10;;;;;;5067308;28;20044;-74
2023/05/24 09:56:45;;;;;;;5.93;2.28;;;17.30;97.90;;;;;;5049125;28;20037;-74
2023/05/24 09:59:11;;;;;;;8.35;2.72;;;17.50;98.20;;;;;;5033641;28;20060;-73
2023/05/24 10:01:37;;;;;;;7.35;2.10;;;17.80;98.10;;;;;;5033774;28;20041;-74
2023/05/24 10:04:05;;;;;;;9.93;2.60;;;17.50;96.80;;;;;;5017978;28;20155;-74
2023/05/24 10:06:36;;;;;;;5.57;2.10;;;17.20;97.60;;;;;;5035294;28;20331;-73
2023/05/24 10:09:05;;;;;;;7.85;2.08;;;17.30;98.70;;;;;;5034512;28;20037;-73
2023/05/24 10:11:32;;;;;;;8.68;2.50;;;17.40;98.20;;;;;;5034670;28;20055;-73
2023/05/24 10:13:58;;;;;;;6.45;2.35;;;17.20;97.00;;;;;;5050877;28;20037;-73
2023/05/24 10:16:24;;;;;;;6.10;2.33;;;17.10;98.00;;;;;;5031766;28;20356;-73
2023/05/24 10:18:50;;;;;;;7.13;3.00;;;16.90;97.50;;;;;;5065227;28;20045;-73
2023/05/24 10:21:18;;;;;;;8.13;2.60;;;16.50;97.20;;;;;;5016686;28;20045;-73
2023/05/24 10:23:50;;;;;;;8.73;3.08;;;16.40;98.50;;;;;;5033912;28;20098;-73
2023/05/24 10:26:16;;;;;;;6.60;3.00;;;16.80;98.20;;;;;;5033701;28;20114;-74
2023/05/24 10:28:50;;;;;;;11.07;5.43;;;16.90;98.50;;;;;;5017083;28;20032;-73
2023/05/24 10:31:30;;;;;;;10.52;3.67;;;17.10;97.80;;;;;;5049251;28;20041;-73
2023/05/24 10:33:59;;;;;;;8.32;3.25;;;17.20;97.00;;;;;;5032693;28;20033;-74
2023/05/24 10:36:25;;;;;;;9.90;3.38;;;16.80;96.90;;;;;;5033328;28;20041;-74
2023/05/24 10:38:51;;;;;;;8.07;3.15;;;16.90;97.50;;;;;;5030993;28;20079;-74
2023/05/24 10:41:18;;;;;;;9.43;2.83;;;17.30;97.60;;;;;;5033142;28;20090;-74
2023/05/24 10:43:47;;;;;;;7.70;2.55;;;17.70;96.00;;;;;;5033042;28;20132;-74
2023/05/24 10:46:17;;;;;;;5.30;2.10;;;18.10;94.40;;;;;;5032762;28;20432;-74
2023/05/24 10:48:43;;;;;;;7.22;2.42;;;18.20;94.10;;;;;;5030770;28;20124;-74
2023/05/24 10:51:40;;;;;;;8.30;2.22;;;17.70;94.00;;;;;;5032654;28;20148;-74
2023/05/24 10:54:19;;;;;;;7.93;2.42;;;17.00;93.60;;;;;;5031001;28;20061;-73
2023/05/24 10:56:47;;;;;;;9.57;2.50;;;16.50;95.50;;;;;;5014711;28;20025;-73
2023/05/24 10:59:27;;;;;;;5.63;2.33;;;16.10;96.80;;;;;;5032901;28;20036;-74
2023/05/24 11:01:59;;;;;;;7.35;2.58;;;16.20;97.50;;;;;;5007333;28;20046;-73
2023/05/24 11:04:29;;;;;;;7.88;2.70;;;16.70;96.70;;;;;;5033488;28;20037;-74
2023/05/24 11:07:08;;;;;;;6.28;2.08;;;17.00;96.30;;;;;;5031388;28;20050;-73
2023/05/24 11:09:44;;;;;;;7.78;2.40;;;17.10;95.70;;;;;;5031873;28;20044;-74
2023/05/24 11:12:16;;;;;;;7.93;2.53;;;17.00;94.60;;;;;;5028857;28;20619;-73
2023/05/24 11:14:50;;;;;;;8.13;2.47;;;16.70;94.70;;;;;;5048609;28;20033;-74
2023/05/24 11:17:20;;;;;;;6.22;2.15;;;16.50;94.90;;;;;;5031401;28;20461;-73
2023/05/24 11:19:53;;;;;;;7.18;2.13;;;16.30;95.10;;;;;;5030983;28;20040;-73
2023/05/24 11:22:21;;;;;;;9.02;2.85;;;16.10;95.80;;;;;;5027097;28;20138;-73
2023/05/24 11:24:47;;;;;;;8.27;2.20;;;15.90;96.00;;;;;;5032244;28;20450;-73
2023/05/24 11:27:13;;;;;;;8.02;2.30;;;15.80;96.20;;;;;;5029308;28;20065;-74
2023/05/24 11:29:46;;;;;;;5.18;1.73;;;15.80;96.30;;;;;;5049986;28;20037;-73
2023/05/24 11:32:17;;;;;;;5.83;1.73;;;15.80;96.70;;;;;;5028149;28;20040;-73
2023/05/24 11:34:48;;;;;;;6.65;1.95;;;15.70;97.60;;;;;;5065378;28;20041;-73
2023/05/24 11:37:14;;;;;;;10.90;1.83;;;15.70;97.30;;;;;;5031519;28;20376;-73
2023/05/24 11:39:40;;;;;;;7.50;2.33;;;15.60;97.30;;;;;;5064480;28;20049;-73
2023/05/24 11:42:07;;;;;;;7.72;2.10;;;15.50;98.20;;;;;;5029400;28;20060;-72
2023/05/24 11:44:36;;;;;;;6.32;1.92;;;15.60;99.30;;;;;;5065559;28;20403;-73
2023/05/24 11:47:05;;;;;;;7.72;2.28;;;15.50;98.70;;;;;;5013742;28;20060;-73
2023/05/24 11:49:31;;;;;;;7.97;2.35;;;15.50;99.90;;;;;;5031972;28;20037;-73
2023/05/24 11:51:58;;;;;;;5.93;2.63;;;15.50;99.90;;;;;;5064171;28;20055;-73
2023/05/24 11:54:25;;;;;;;7.07;2.38;;;15.40;99.90;;;;;;5063702;28;20083;-73
2023/05/24 11:56:52;;;;;;;10.07;2.75;;;15.40;99.90;;;;;;5029390;28;20043;-73
2023/05/24 11:59:28;;;;;;;9.90;2.60;;;15.40;99.90;;;;;;5063717;28;20036;-73
2023/05/24 12:01:58;;;;;;;9.10;2.85;;;15.30;99.90;;;;;;5029274;28;20476;-72
2023/05/24 12:04:24;;;;;;;8.23;2.83;;;15.20;99.90;;;;;;5032647;28;20045;-73
2023/05/24 12:06:50;;;;;;;10.50;3.00;;;15.10;99.90;;;;;;5031208;28;20055;-72
2023/05/24 12:09:17;;;;;;;12.95;2.97;;;15.10;99.90;;;;;;5031317;28;20334;-73
2023/05/24 12:11:46;;;;;;;8.75;2.58;;;15.10;99.90;;;;;;5064164;28;20055;-73
2023/05/24 12:14:14;;;;;;;12.30;2.80;;;15.20;99.90;;;;;;5065237;28;20240;-73
2023/05/24 12:16:42;;;;;;;9.50;2.80;;;15.20;99.90;;;;;;5030381;28;20033;-72
2023/05/24 12:19:11;;;;;;;9.95;2.70;;;15.30;99.90;;;;;;5028062;28;20048;-73
2023/05/24 12:21:40;;;;;;;11.65;3.33;;;15.20;99.90;;;;;;5027763;28;20052;-73
2023/05/24 12:24:15;;;;;;;13.25;4.03;;;15.20;99.90;;;;;;5023854;28;20062;-73
2023/05/24 12:26:46;;;;;;;17.00;3.50;;;15.20;99.90;;;;;;5028989;28;20568;-73
2023/05/24 12:29:12;;;;;;;13.18;3.55;;;15.20;99.90;;;;;;5030959;28;20049;-73
2023/05/24 12:31:42;;;;;;;11.63;3.10;;;15.20;99.90;;;;;;5030011;28;20489;-72
2023/05/24 12:34:15;;;;;;;9.68;3.28;;;15.20;99.90;;;;;;5025344;28;20033;-73
2023/05/24 12:36:42;;;;;;;8.77;2.35;;;15.10;99.90;;;;;;5028673;28;20037;-74
2023/05/24 12:39:19;;;;;;;11.50;2.53;;;15.10;99.90;;;;;;5031221;28;20045;-74
2023/05/24 12:41:52;;;;;;;6.45;2.13;;;15.10;99.90;;;;;;5009047;28;20094;-75
2023/05/24 12:44:26;;;;;;;7.68;2.08;;;15.00;99.90;;;;;;5030334;28;20044;-74
2023/05/24 12:46:53;;;;;;;10.05;2.53;;;14.90;99.90;;;;;;5029472;28;20094;-75